createdAt,value
2023-05-18T00:01:10.255Z,101238.12
2023-05-18T00:03:39.571Z,101231.17
2023-05-18T00:06:10.480Z,101234.58
2023-05-18T00:08:39.768Z,101236.28
2023-05-18T00:11:09.404Z,101233.63
2023-05-18T00:13:38.540Z,101242.27
2023-05-18T00:16:10.877Z,101230.13
2023-05-18T00:18:44.783Z,101233.56
2023-05-18T00:21:15.696Z,101239.58
2023-05-18T00:23:50.664Z,101236.07
2023-05-18T00:26:20.471Z,101241.27
2023-05-18T00:28:56.265Z,101235.21
2023-05-18T00:31:28.523Z,101240.41
2023-05-18T00:34:00.533Z,101248.16
2023-05-18T00:36:32.972Z,101243.81
2023-05-18T00:39:05.402Z,101252.46
2023-05-18T00:41:35.014Z,101253.34
2023-05-18T00:44:04.468Z,101256.75
2023-05-18T00:46:33.399Z,101240.30
2023-05-18T00:49:04.317Z,101251.53
2023-05-18T00:51:35.980Z,101255.84
2023-05-18T00:54:12.367Z,101255.83
2023-05-18T00:56:46.173Z,101259.27
2023-05-18T00:59:18.152Z,101265.31
2023-05-18T01:01:48.186Z,101263.58
2023-05-18T01:04:24.089Z,101254.92
2023-05-18T01:07:06.222Z,101266.17
2023-05-18T01:09:35.577Z,101262.67
2023-05-18T01:12:12.909Z,101260.08
2023-05-18T01:14:49.983Z,101271.31
2023-05-18T01:17:34.796Z,101272.16
2023-05-18T01:20:33.605Z,101274.77
2023-05-18T01:23:29.396Z,101272.16
2023-05-18T01:26:16.123Z,101281.69
2023-05-18T01:28:52.563Z,101266.91
2023-05-18T01:31:28.398Z,101271.23
2023-05-18T01:33:58.488Z,101273.79
2023-05-18T01:36:31.781Z,101277.23
2023-05-18T01:39:03.948Z,101278.97
2023-05-18T01:41:38.707Z,101278.07
2023-05-18T01:44:19.263Z,101284.95
2023-05-18T01:47:06.652Z,101281.45
2023-05-18T01:49:43.888Z,101287.48
2023-05-18T01:52:18.884Z,101286.58
2023-05-18T01:54:54.201Z,101295.20
2023-05-18T01:57:29.739Z,101292.56
2023-05-18T02:00:00.671Z,101296.89
2023-05-18T02:02:38.439Z,101302.92
2023-05-18T02:05:11.781Z,101298.52
2023-05-18T02:07:43.544Z,101300.23
2023-05-18T02:10:14.934Z,101289.77
2023-05-18T02:12:48.540Z,101298.33
2023-05-18T02:15:19.335Z,101302.59
2023-05-18T02:17:50.891Z,101300.77
2023-05-18T02:20:20.473Z,101305.92
2023-05-18T02:22:49.538Z,101305.05
2023-05-18T02:25:19.870Z,101302.39
2023-05-18T02:27:53.549Z,101308.41
2023-05-18T02:30:24.759Z,101310.92
2023-05-18T02:32:53.574Z,101311.70
2023-05-18T02:35:23.005Z,101301.20
2023-05-18T02:37:53.563Z,101308.05
2023-05-18T02:40:23.119Z,101304.47
2023-05-18T02:42:52.130Z,101311.33
2023-05-18T02:45:21.627Z,101311.24
2023-05-18T02:47:50.759Z,101312.93
2023-05-18T02:50:20.144Z,101321.53
2023-05-18T02:52:50.803Z,101318.03
2023-05-18T02:55:19.881Z,101329.22
2023-05-18T02:58:07.396Z,101327.42
2023-05-18T03:01:03.086Z,101329.16
2023-05-18T03:03:37.000Z,101329.98
2023-05-18T03:06:08.551Z,101339.45
2023-05-18T03:08:40.844Z,101342.89
2023-05-18T03:11:12.971Z,101342.89
2023-05-18T03:13:43.137Z,101346.33
2023-05-18T03:16:15.065Z,101348.05
2023-05-18T03:18:44.440Z,101356.69
2023-05-18T03:21:16.997Z,101353.26
2023-05-18T03:23:46.375Z,101355.02
2023-05-18T03:26:16.277Z,101355.08
2023-05-18T03:28:45.470Z,101354.23
2023-05-18T03:31:14.587Z,101360.34
2023-05-18T03:33:43.798Z,101358.63
2023-05-18T03:36:22.323Z,101357.83
2023-05-18T03:38:55.732Z,101355.27
2023-05-18T03:41:29.544Z,101358.77
2023-05-18T03:44:00.514Z,101367.48
2023-05-18T03:46:31.548Z,101365.80
2023-05-18T03:49:02.761Z,101364.95
2023-05-18T03:51:38.300Z,101372.75
2023-05-18T03:54:10.664Z,101371.91
2023-05-18T03:56:44.534Z,101380.66
2023-05-18T03:59:13.733Z,101376.33
2023-05-18T04:01:43.863Z,101374.64
2023-05-18T04:04:17.870Z,101378.14
2023-05-18T04:06:46.642Z,101387.69
2023-05-18T04:09:17.989Z,101386.01
2023-05-18T04:11:46.960Z,101394.70
2023-05-18T04:14:16.716Z,101387.80
2023-05-18T04:16:46.273Z,101400.83
2023-05-18T04:19:16.983Z,101398.25
2023-05-18T04:21:46.846Z,101404.41
2023-05-18T04:24:16.053Z,101403.64
2023-05-18T04:26:46.091Z,101400.28
2023-05-18T04:29:18.313Z,101409.01
2023-05-18T04:31:49.667Z,101409.07
2023-05-18T04:34:18.761Z,101403.97
2023-05-18T04:36:48.424Z,101398.86
2023-05-18T04:39:18.880Z,101406.70
2023-05-18T04:41:57.655Z,101403.34
2023-05-18T04:44:30.794Z,101411.19
2023-05-18T04:47:03.975Z,101410.41
2023-05-18T04:49:38.099Z,101412.25
2023-05-18T04:52:11.845Z,101411.47
2023-05-18T04:54:41.071Z,101417.64
2023-05-18T04:57:11.534Z,101412.52
2023-05-18T04:59:44.593Z,101411.73
2023-05-18T05:02:14.706Z,101410.89
2023-05-18T05:04:44.422Z,101417.00
2023-05-18T05:07:13.885Z,101418.83
2023-05-18T05:09:46.717Z,101422.34
2023-05-18T05:12:15.604Z,101416.37
2023-05-18T05:14:45.846Z,101426.87
2023-05-18T05:17:28.589Z,101420.05
2023-05-18T05:19:57.910Z,101428.77
2023-05-18T05:22:27.030Z,101427.11
2023-05-18T05:24:59.997Z,101427.17
2023-05-18T05:27:40.147Z,101424.64
2023-05-18T05:30:18.488Z,101433.39
2023-05-18T05:32:50.272Z,101433.46
2023-05-18T05:35:34.883Z,101433.62
2023-05-18T05:38:05.350Z,101434.58
2023-05-18T05:40:37.845Z,101429.42
2023-05-18T05:43:07.608Z,101441.62
2023-05-18T05:45:43.214Z,101436.47
2023-05-18T05:48:15.522Z,101439.12
2023-05-18T05:50:45.652Z,101437.50
2023-05-18T05:53:17.401Z,101446.27
2023-05-18T05:55:47.131Z,101441.16
2023-05-18T05:58:20.787Z,101449.95
2023-05-18T06:00:53.547Z,101437.95
2023-05-18T06:03:23.092Z,101436.41
2023-05-18T06:05:52.454Z,101438.33
2023-05-18T06:08:24.695Z,101441.95
2023-05-18T06:10:55.330Z,101446.39
2023-05-18T06:13:24.281Z,101451.66
2023-05-18T06:15:59.928Z,101449.08
2023-05-18T06:18:31.904Z,101448.25
2023-05-18T06:21:05.372Z,101446.53
2023-05-18T06:23:39.459Z,101446.52
2023-05-18T06:26:28.782Z,101449.16
2023-05-18T06:29:27.466Z,101450.05
2023-05-18T06:32:10.087Z,101450.04
2023-05-18T06:34:45.406Z,101457.91
2023-05-18T06:37:14.995Z,101456.20
2023-05-18T06:39:47.292Z,101460.63
2023-05-18T06:42:16.537Z,101451.08
2023-05-18T06:44:56.059Z,101454.64
2023-05-18T06:47:48.134Z,101458.13
2023-05-18T06:50:17.601Z,101462.50
2023-05-18T06:52:51.085Z,101459.06
2023-05-18T06:55:20.541Z,101464.27
2023-05-18T06:57:52.917Z,101461.68
2023-05-18T07:00:26.838Z,101457.33
2023-05-18T07:02:57.590Z,101467.80
2023-05-18T07:05:36.891Z,101466.07
2023-05-18T07:08:07.680Z,101469.58
2023-05-18T07:10:36.995Z,101470.45
2023-05-18T07:13:08.551Z,101471.30
2023-05-18T07:15:39.191Z,101471.31
2023-05-18T07:18:08.152Z,101472.20
2023-05-18T07:20:37.691Z,101473.95
2023-05-18T07:23:08.489Z,101470.48
2023-05-18T07:25:38.011Z,101479.19
2023-05-18T07:28:09.049Z,101474.83
2023-05-18T07:30:38.402Z,101481.80
2023-05-18T07:33:19.297Z,101485.27
2023-05-18T07:35:48.221Z,101484.42
2023-05-18T07:38:19.573Z,101487.87
2023-05-18T07:40:48.685Z,101489.61
2023-05-18T07:43:17.576Z,101483.48
2023-05-18T07:45:46.656Z,101484.36
2023-05-18T07:48:15.811Z,101486.97
2023-05-18T07:50:44.851Z,101480.83
2023-05-18T07:53:16.275Z,101487.78
2023-05-18T07:55:45.759Z,101489.48
2023-05-18T07:58:16.657Z,101486.85
2023-05-18T08:00:45.834Z,101486.81
2023-05-18T08:03:15.782Z,101493.73
2023-05-18T08:05:45.934Z,101492.83
2023-05-18T08:08:17.695Z,101504.98
2023-05-18T08:10:47.236Z,101501.39
2023-05-18T08:13:17.354Z,101495.21
2023-05-18T08:15:51.055Z,101491.66
2023-05-18T08:18:28.454Z,101488.97
2023-05-18T08:20:57.761Z,101494.16
2023-05-18T08:23:26.656Z,101492.45
2023-05-18T08:25:59.654Z,101489.88
2023-05-18T08:28:28.579Z,101498.59
2023-05-18T08:30:57.873Z,101500.27
2023-05-18T08:33:26.820Z,101503.76
2023-05-18T08:35:56.245Z,101501.09
2023-05-18T08:38:25.072Z,101501.91
2023-05-18T08:41:06.641Z,101502.81
2023-05-18T08:43:41.833Z,101504.45
2023-05-18T08:46:20.159Z,101499.94
2023-05-18T08:48:51.953Z,101499.86
2023-05-18T08:51:22.033Z,101500.74
2023-05-18T08:53:54.028Z,101498.92
2023-05-18T08:56:25.935Z,101494.49
2023-05-18T08:59:00.274Z,101493.55
2023-05-18T09:01:30.850Z,101490.08
2023-05-18T09:04:00.219Z,101498.75
2023-05-18T09:06:29.623Z,101495.96
2023-05-18T09:08:58.824Z,101501.09
2023-05-18T09:11:28.481Z,101505.41
2023-05-18T09:13:58.596Z,101502.73
2023-05-18T09:16:28.804Z,101500.01
2023-05-18T09:18:58.352Z,101495.52
2023-05-18T09:21:32.230Z,101498.91
2023-05-18T09:24:00.584Z,101497.09
2023-05-18T09:26:30.453Z,101499.72
2023-05-18T09:28:59.686Z,101498.70
2023-05-18T09:31:31.723Z,101498.53
2023-05-18T09:34:01.340Z,101491.42
2023-05-18T09:36:33.958Z,101496.53
2023-05-18T09:39:09.732Z,101499.86
2023-05-18T09:41:40.850Z,101503.03
2023-05-18T09:44:13.102Z,101494.04
2023-05-18T09:46:44.012Z,101500.79
2023-05-18T09:49:21.249Z,101501.59
2023-05-18T09:51:50.614Z,101506.30
2023-05-18T09:54:24.229Z,101511.86
2023-05-18T09:57:09.033Z,101509.38
2023-05-18T09:59:40.900Z,101511.93
2023-05-18T10:02:15.722Z,101505.73
2023-05-18T10:04:45.236Z,101497.84
2023-05-18T10:07:18.230Z,101500.52
2023-05-18T10:09:47.259Z,101502.30
2023-05-18T10:12:18.114Z,101504.81
2023-05-18T10:14:49.204Z,101506.59
2023-05-18T10:17:18.958Z,101504.73
2023-05-18T10:19:51.837Z,101503.84
2023-05-18T10:22:23.136Z,101497.64
2023-05-18T10:24:52.757Z,101499.31
2023-05-18T10:27:27.765Z,101495.70
2023-05-18T10:29:59.321Z,101498.58
2023-05-18T10:32:30.966Z,101503.19
2023-05-18T10:35:01.581Z,101496.27
2023-05-18T10:37:33.784Z,101489.38
2023-05-18T10:40:04.139Z,101502.56
2023-05-18T10:42:33.627Z,101496.27
2023-05-18T10:45:06.347Z,101497.19
2023-05-18T10:47:39.408Z,101499.83
2023-05-18T10:50:11.651Z,101494.41
2023-05-18T10:52:42.966Z,101493.36
2023-05-18T10:55:17.828Z,101495.78
2023-05-18T10:57:56.745Z,101498.20
2023-05-18T11:00:31.068Z,101485.66
2023-05-18T11:03:07.951Z,101485.42
2023-05-18T11:05:39.324Z,101492.30
2023-05-18T11:08:08.715Z,101487.78
2023-05-18T11:10:41.909Z,101490.17
2023-05-18T11:13:14.798Z,101489.23
2023-05-18T11:16:06.764Z,101493.50
2023-05-18T11:18:38.362Z,101477.50
2023-05-18T11:21:34.458Z,101481.66
2023-05-18T11:24:19.846Z,101473.86
2023-05-18T11:26:50.685Z,101484.61
2023-05-18T11:29:22.290Z,101473.21
2023-05-18T11:31:53.505Z,101482.91
2023-05-18T11:34:52.739Z,101472.38
2023-05-18T11:37:48.837Z,101474.59
2023-05-18T11:40:47.131Z,101478.83
2023-05-18T11:43:27.354Z,101475.23
2023-05-18T11:46:00.866Z,101470.80
2023-05-18T11:48:31.784Z,101472.76
2023-05-18T11:51:09.032Z,101473.80
2023-05-18T11:53:38.547Z,101474.06
2023-05-18T11:56:18.026Z,101473.13
2023-05-18T11:59:07.402Z,101481.92
2023-05-18T12:01:41.521Z,101485.66
2023-05-18T12:04:11.619Z,101480.28
2023-05-18T12:06:44.546Z,101478.49
2023-05-18T12:09:34.892Z,101484.65
2023-05-18T12:12:13.540Z,101491.72
2023-05-18T12:14:53.485Z,101489.33
2023-05-18T12:17:23.905Z,101481.63
2023-05-18T12:19:52.908Z,101476.30
2023-05-18T12:22:22.121Z,101481.47
2023-05-18T12:24:52.878Z,101483.02
2023-05-18T12:27:22.806Z,101474.11
2023-05-18T12:29:52.953Z,101481.87
2023-05-18T12:32:25.726Z,101489.02
2023-05-18T12:34:54.866Z,101489.19
2023-05-18T12:37:34.121Z,101477.19
2023-05-18T12:40:17.832Z,101482.28
2023-05-18T12:42:56.545Z,101484.80
2023-05-18T12:45:33.344Z,101484.11
2023-05-18T12:48:15.647Z,101479.83
2023-05-18T12:50:50.244Z,101482.61
2023-05-18T12:53:19.752Z,101482.84
2023-05-18T12:55:57.995Z,101482.84
2023-05-18T12:58:27.377Z,101485.48
2023-05-18T13:00:56.402Z,101488.20
2023-05-18T13:03:26.238Z,101485.61
2023-05-18T13:06:05.552Z,101490.11
2023-05-18T13:08:35.772Z,101488.28
2023-05-18T13:11:13.513Z,101488.20
2023-05-18T13:14:04.502Z,101480.22
2023-05-18T13:16:39.116Z,101482.80
2023-05-18T13:19:09.632Z,101480.07
2023-05-18T13:21:39.150Z,101475.80
2023-05-18T13:24:08.669Z,101483.78
2023-05-18T13:26:37.774Z,101485.52
2023-05-18T13:29:08.062Z,101481.99
2023-05-18T13:31:37.427Z,101480.34
2023-05-18T13:34:06.342Z,101480.63
2023-05-18T13:36:36.586Z,101479.78
2023-05-18T13:39:06.763Z,101479.91
2023-05-18T13:41:36.276Z,101480.89
2023-05-18T13:44:05.613Z,101478.42
2023-05-18T13:46:37.025Z,101478.50
2023-05-18T13:49:05.946Z,101483.92
2023-05-18T13:51:35.116Z,101488.41
2023-05-18T13:54:04.408Z,101479.75
2023-05-18T13:56:33.304Z,101484.16
2023-05-18T13:59:03.167Z,101484.23
2023-05-18T14:01:32.481Z,101481.69
2023-05-18T14:04:01.832Z,101486.16
2023-05-18T14:06:31.330Z,101485.48
2023-05-18T14:09:01.702Z,101481.19
2023-05-18T14:11:34.089Z,101483.00
2023-05-18T14:14:03.267Z,101493.52
2023-05-18T14:16:32.443Z,101486.55
2023-05-18T14:19:01.666Z,101483.10
2023-05-18T14:21:31.238Z,101480.54
2023-05-18T14:24:03.513Z,101478.86
2023-05-18T14:26:33.692Z,101478.90
2023-05-18T14:29:03.740Z,101480.67
2023-05-18T14:31:32.903Z,101479.81
2023-05-18T14:34:03.575Z,101472.88
2023-05-18T14:36:32.737Z,101481.71
2023-05-18T14:39:01.918Z,101478.23
2023-05-18T14:41:31.044Z,101484.48
2023-05-18T14:44:03.171Z,101487.17
2023-05-18T14:46:32.329Z,101489.80
2023-05-18T14:49:01.524Z,101484.57
2023-05-18T14:51:30.784Z,101481.15
2023-05-18T14:54:00.073Z,101488.20
2023-05-18T14:56:30.230Z,101489.99
2023-05-18T14:58:59.223Z,101490.91
2023-05-18T15:01:28.550Z,101482.22
2023-05-18T15:03:57.719Z,101491.88
2023-05-18T15:06:27.761Z,101491.08
2023-05-18T15:08:57.320Z,101485.88
2023-05-18T15:11:26.663Z,101488.53
2023-05-18T15:13:55.774Z,101485.95
2023-05-18T15:16:25.402Z,101486.86
2023-05-18T15:18:54.587Z,101481.66
2023-05-18T15:21:24.216Z,101488.67
2023-05-18T15:23:53.201Z,101486.06
2023-05-18T15:26:22.521Z,101486.09
2023-05-18T15:28:53.777Z,101487.87
2023-05-18T15:31:23.176Z,101487.02
2023-05-18T15:33:52.572Z,101481.77
2023-05-18T15:36:23.739Z,101487.92
2023-05-18T15:38:53.399Z,101486.17
2023-05-18T15:41:23.431Z,101485.34
2023-05-18T15:43:54.435Z,101494.98
2023-05-18T15:46:23.981Z,101484.52
2023-05-18T15:48:55.961Z,101493.27
2023-05-18T15:51:25.632Z,101497.66
2023-05-18T15:53:54.633Z,101492.41
2023-05-18T15:56:23.809Z,101496.77
2023-05-18T15:58:55.492Z,101493.27
2023-05-18T16:01:25.847Z,101486.28
2023-05-18T16:03:55.968Z,101486.27
2023-05-18T16:06:25.376Z,101482.78
2023-05-18T16:08:55.740Z,101483.71
2023-05-18T16:11:25.567Z,101482.84
2023-05-18T16:13:56.796Z,101495.11
2023-05-18T16:16:26.476Z,101486.36
2023-05-18T16:18:55.466Z,101490.74
2023-05-18T16:21:24.429Z,101493.39
2023-05-18T16:23:53.312Z,101490.78
2023-05-18T16:26:22.415Z,101493.40
2023-05-18T16:28:51.790Z,101490.80
2023-05-18T16:31:21.368Z,101489.05
2023-05-18T16:33:50.091Z,101492.58
2023-05-18T16:36:19.094Z,101491.72
2023-05-18T16:38:47.900Z,101492.56
2023-05-18T16:41:17.192Z,101491.73
2023-05-18T16:43:46.060Z,101489.12
2023-05-18T16:46:19.438Z,101490.88
2023-05-18T16:48:51.389Z,101500.52
2023-05-18T16:51:20.782Z,101497.03
2023-05-18T16:53:51.705Z,101496.17
2023-05-18T16:56:21.743Z,101501.44
2023-05-18T16:58:55.718Z,101496.22
2023-05-18T17:01:28.537Z,101497.96
2023-05-18T17:03:58.690Z,101503.24
2023-05-18T17:06:28.260Z,101498.88
2023-05-18T17:08:57.434Z,101502.41
2023-05-18T17:11:28.357Z,101500.68
2023-05-18T17:13:59.505Z,101502.44
2023-05-18T17:16:29.530Z,101505.91
2023-05-18T17:18:58.593Z,101512.02
2023-05-18T17:21:30.546Z,101508.55
2023-05-18T17:23:59.788Z,101506.83
2023-05-18T17:26:32.491Z,101506.81
2023-05-18T17:29:01.312Z,101505.95
2023-05-18T17:31:31.065Z,101505.96
2023-05-18T17:34:00.159Z,101515.56
2023-05-18T17:36:29.367Z,101513.84
2023-05-18T17:38:58.420Z,101519.08
2023-05-18T17:41:27.877Z,101515.61
2023-05-18T17:44:01.695Z,101513.00
2023-05-18T17:46:31.391Z,101516.51
2023-05-18T17:49:03.474Z,101520.00
2023-05-18T17:51:33.104Z,101520.89
2023-05-18T17:54:02.468Z,101523.52
2023-05-18T17:56:35.203Z,101527.04
2023-05-18T17:59:05.012Z,101531.38
2023-05-18T18:01:38.052Z,101530.52
2023-05-18T18:04:07.123Z,101526.17
2023-05-18T18:06:39.606Z,101530.53
2023-05-18T18:09:08.666Z,101531.42
2023-05-18T18:11:41.551Z,101527.95
2023-05-18T18:14:15.813Z,101530.56
2023-05-18T18:16:45.710Z,101529.69
2023-05-18T18:19:18.683Z,101537.54
2023-05-18T18:21:50.959Z,101539.30
2023-05-18T18:24:21.803Z,101541.91
2023-05-18T18:26:52.645Z,101541.05
2023-05-18T18:29:21.956Z,101543.66
2023-05-18T18:31:52.056Z,101544.55
2023-05-18T18:34:23.651Z,101542.81
2023-05-18T18:37:00.848Z,101545.41
2023-05-18T18:39:34.510Z,101546.30
2023-05-18T18:42:06.954Z,101547.16
2023-05-18T18:44:37.728Z,101555.01
2023-05-18T18:47:07.745Z,101553.24
2023-05-18T18:49:56.109Z,101555.89
2023-05-18T18:52:26.181Z,101561.97
2023-05-18T18:54:55.799Z,101551.53
2023-05-18T18:57:27.653Z,101553.27
2023-05-18T18:59:58.578Z,101559.36
2023-05-18T19:02:29.018Z,101561.97
2023-05-18T19:04:59.114Z,101555.00
2023-05-18T19:07:29.063Z,101563.72
2023-05-18T19:09:57.951Z,101558.50
2023-05-18T19:12:27.082Z,101563.71
2023-05-18T19:14:56.044Z,101565.46
2023-05-18T19:17:26.324Z,101566.35
2023-05-18T19:19:55.351Z,101563.73
2023-05-18T19:22:24.316Z,101566.34
2023-05-18T19:24:53.211Z,101560.24
2023-05-18T19:27:23.402Z,101562.86
2023-05-18T19:29:52.698Z,101562.86
2023-05-18T19:32:22.745Z,101562.83
2023-05-18T19:34:51.822Z,101566.34
2023-05-18T19:37:21.299Z,101564.59
2023-05-18T19:39:50.491Z,101564.59
2023-05-18T19:42:20.111Z,101568.96
2023-05-18T19:44:49.132Z,101568.08
2023-05-18T19:47:18.276Z,101565.47
2023-05-18T19:49:47.422Z,101567.19
2023-05-18T19:52:19.481Z,101574.18
2023-05-18T19:54:50.533Z,101571.56
2023-05-18T19:57:20.989Z,101563.72
2023-05-18T19:59:50.274Z,101569.83
2023-05-18T20:02:19.356Z,101574.18
2023-05-18T20:04:48.602Z,101579.40
2023-05-18T20:07:17.860Z,101583.77
2023-05-18T20:09:47.061Z,101580.28
2023-05-18T20:12:16.263Z,101582.03
2023-05-18T20:14:46.635Z,101588.14
2023-05-18T20:17:21.227Z,101588.12
2023-05-18T20:19:50.554Z,101587.26
2023-05-18T20:22:20.412Z,101586.39
2023-05-18T20:24:50.683Z,101584.64
2023-05-18T20:27:19.784Z,101586.41
2023-05-18T20:29:48.610Z,101590.73
2023-05-18T20:32:18.094Z,101591.61
2023-05-18T20:34:47.275Z,101591.62
2023-05-18T20:37:30.858Z,101597.70
2023-05-18T20:40:06.806Z,101588.98
2023-05-18T20:42:40.902Z,101601.19
2023-05-18T20:45:11.756Z,101595.09
2023-05-18T20:47:46.831Z,101597.72
2023-05-18T20:50:17.327Z,101605.56
2023-05-18T20:52:46.920Z,101609.05
2023-05-18T20:55:17.949Z,101605.56
2023-05-18T20:57:50.361Z,101607.29
2023-05-18T21:00:22.906Z,101612.52
2023-05-18T21:02:53.984Z,101607.29
2023-05-18T21:05:23.202Z,101614.27
2023-05-18T21:07:52.974Z,101612.51
2023-05-18T21:10:25.970Z,101616.02
2023-05-18T21:12:55.547Z,101616.87
2023-05-18T21:15:26.848Z,101614.27
2023-05-18T21:18:03.245Z,101609.91
2023-05-18T21:20:33.352Z,101619.50
2023-05-18T21:23:03.913Z,101614.25
2023-05-18T21:25:33.918Z,101615.12
2023-05-18T21:28:06.524Z,101612.52
2023-05-18T21:30:35.312Z,101615.11
2023-05-18T21:33:05.534Z,101610.76
2023-05-18T21:35:34.863Z,101615.97
2023-05-18T21:38:07.066Z,101618.60
2023-05-18T21:40:36.067Z,101615.08
2023-05-18T21:43:07.148Z,101625.54
2023-05-18T21:45:36.013Z,101624.66
2023-05-18T21:48:09.760Z,101623.77
2023-05-18T21:50:38.746Z,101624.64
2023-05-18T21:53:08.211Z,101632.48
2023-05-18T21:55:37.237Z,101637.71
2023-05-18T21:58:06.951Z,101633.34
2023-05-18T22:00:37.675Z,101636.83
2023-05-18T22:03:09.622Z,101642.05
2023-05-18T22:05:40.895Z,101638.58
2023-05-18T22:08:11.186Z,101635.97
2023-05-18T22:10:43.223Z,101637.69
2023-05-18T22:13:13.479Z,101642.06
2023-05-18T22:15:42.299Z,101636.84
2023-05-18T22:18:11.478Z,101643.78
2023-05-18T22:20:41.313Z,101650.77
2023-05-18T22:23:10.955Z,101647.30
2023-05-18T22:25:42.165Z,101640.32
2023-05-18T22:28:12.361Z,101642.04
2023-05-18T22:30:44.251Z,101643.80
2023-05-18T22:33:14.049Z,101642.05
2023-05-18T22:35:43.040Z,101646.38
2023-05-18T22:38:14.021Z,101642.02
2023-05-18T22:40:43.779Z,101635.94
2023-05-18T22:43:14.729Z,101645.51
2023-05-18T22:45:43.582Z,101643.77
2023-05-18T22:48:15.767Z,101652.47
2023-05-18T22:50:47.769Z,101645.49
2023-05-18T22:53:16.745Z,101645.46
2023-05-18T22:55:48.522Z,101652.44
2023-05-18T22:58:17.647Z,101651.55
2023-05-18T23:00:46.628Z,101648.09
2023-05-18T23:03:19.097Z,101643.70
2023-05-18T23:05:48.320Z,101642.84
2023-05-18T23:08:17.227Z,101644.56
2023-05-18T23:10:46.138Z,101645.43
2023-05-18T23:13:16.889Z,101649.77
2023-05-18T23:15:47.203Z,101653.23
2023-05-18T23:18:18.497Z,101646.30
2023-05-18T23:20:50.107Z,101645.41
2023-05-18T23:23:27.459Z,101646.25
2023-05-18T23:25:59.605Z,101646.25
2023-05-18T23:28:29.413Z,101649.73
2023-05-18T23:31:03.021Z,101647.12
2023-05-18T23:33:34.587Z,101644.48
2023-05-18T23:36:08.056Z,101641.87
2023-05-18T23:38:40.350Z,101647.06
2023-05-18T23:41:10.260Z,101653.16
2023-05-18T23:43:43.410Z,101653.16
2023-05-18T23:46:16.481Z,101655.77
2023-05-18T23:48:46.617Z,101646.16
2023-05-18T23:51:18.717Z,101645.27
2023-05-18T23:53:58.965Z,101653.10
2023-05-18T23:56:29.051Z,101649.60
2023-05-18T23:59:00.937Z,101647.85
